グラスゴー の空港の天気 - METARとTAF

グラスゴー国際空港 ( EGPF / GLA ) - イギリス グラスゴー
飛行場実況気象(Metar)
観測時間07/07 12:20 BST (07/07 11:20 UTC)
風向・風速北西 3m/s
視程10km以上
天気現象
少しの雲 雲底高度 760m
全天の8割程度の雲 雲底高度 1250m
気温14℃
湿度72%
気圧1016hPa
METAREGPF 071120Z AUTO 31005KT 9999 FEW025/// BKN041/// //////TCU 14/09 Q1016
過去の天気等 Google飛行場航空写真 Wunderground天気予報

過去48時間のMETAR

飛行場予報(TAF)
発表時間: 7/07 12:02 BST (7/07 11:02 UTC)
予報対象時間: 7日13時 BST ~ 8日13時 BST
風向・風速西 5m/s
視程10km以上
全天の4割程度の雲 雲底高度 910m
7日13時 BST ~ 7日21時 BST に 確率 40% で一時的に
視程7000m
天気現象しゅう雨
7日22時 BST ~ 8日1時 BST に徐々に
風向・風速東北東 5m/s
8日1時 BST ~ 8日10時 BST に 確率 30% で一時的に
視程8000m
全天の8割程度の雲 雲底高度 370m
TAF EGPF 071102Z 0712/0812 27009KT 9999 SCT030
PROB40 TEMPO 0712/0720 7000 SHRA
BECMG 0721/0724 07010KT
PROB30 TEMPO 0800/0809 8000 BKN012